Time;durP1;ratioP1;P1;durP2;ratioP2;P2;SDS_P1;SDS_P2;PMS_P1;PMS_P2;Temp;Humidity;BMP_temperature;BMP_pressure;BME280_temperature;BME280_humidity;BME280_pressure;Samples;Min_cycle;Max_cycle;Signal;HPM_P1;HPM_P2
2022/04/16 00:02:03;;;;;;;10.48;6.88;;;384.80;2329.60;;;;;;5032056;28;20079;-59
2022/04/16 00:04:29;;;;;;;9.15;5.20;;;384.70;2329.60;;;;;;5031914;28;20083;-60
2022/04/16 00:06:56;;;;;;;7.65;4.38;;;384.70;2329.60;;;;;;5032113;28;20390;-59
2022/04/16 00:09:22;;;;;;;12.05;5.47;;;384.50;2329.60;;;;;;5031992;28;20491;-59
2022/04/16 00:11:48;;;;;;;8.65;5.00;;;384.50;2329.60;;;;;;5031821;28;20029;-60
2022/04/16 00:14:19;;;;;;;12.60;4.93;;;384.50;2329.60;;;;;;5031814;28;20052;-59
2022/04/16 00:16:46;;;;;;;9.32;5.13;;;384.40;2329.60;;;;;;5031775;28;20387;-60
2022/04/16 00:19:12;;;;;;;9.32;5.07;;;384.30;2329.60;;;;;;5032167;28;20028;-60
2022/04/16 00:21:39;;;;;;;10.50;6.63;;;384.20;2329.60;;;;;;5031740;28;20025;-60
2022/04/16 00:24:05;;;;;;;8.20;5.32;;;384.10;2329.60;;;;;;5031489;28;20028;-60
2022/04/16 00:26:30;;;;;;;15.48;6.60;;;384.00;2329.60;;;;;;5031888;28;20025;-60
2022/04/16 00:28:59;;;;;;;8.82;5.28;;;359.30;2329.60;;;;;;5031697;28;20026;-60
2022/04/16 00:31:26;;;;;;;11.38;4.93;;;359.30;2329.60;;;;;;5031467;28;20047;-60
2022/04/16 00:33:52;;;;;;;9.10;6.30;;;359.30;2329.60;;;;;;5031244;28;20038;-60
2022/04/16 00:36:18;;;;;;;17.13;11.35;;;384.10;2329.60;;;;;;5031783;28;20083;-60
2022/04/16 00:38:44;;;;;;;8.98;5.65;;;384.20;2329.60;;;;;;5031483;28;20026;-60
2022/04/16 00:41:11;;;;;;;9.52;5.13;;;384.20;2329.60;;;;;;5031083;28;20434;-60
2022/04/16 00:43:37;;;;;;;7.22;4.72;;;384.10;2329.60;;;;;;5031206;28;20469;-60
2022/04/16 00:46:03;;;;;;;7.22;5.00;;;384.10;2329.60;;;;;;5031356;28;20034;-59
2022/04/16 00:48:28;;;;;;;14.35;5.57;;;384.00;2329.60;;;;;;5031460;28;20033;-59
2022/04/16 00:50:55;;;;;;;7.80;5.05;;;384.00;2329.60;;;;;;5031227;28;20030;-60
2022/04/16 00:53:25;;;;;;;17.60;5.53;;;359.30;2329.60;;;;;;5031182;28;20038;-60
2022/04/16 00:55:51;;;;;;;8.25;4.47;;;384.00;2329.60;;;;;;5031102;28;20472;-60
2022/04/16 00:58:17;;;;;;;6.10;4.30;;;384.10;2329.60;;;;;;5030843;28;20048;-60
2022/04/16 01:00:43;;;;;;;12.73;4.68;;;384.10;2329.60;;;;;;5031016;28;20427;-60
2022/04/16 01:03:09;;;;;;;10.10;5.30;;;384.20;2329.60;;;;;;5030873;28;20025;-60
2022/04/16 01:05:37;;;;;;;6.70;4.00;;;384.20;2329.60;;;;;;5030836;28;20060;-60
2022/04/16 01:08:04;;;;;;;6.95;4.70;;;384.30;2329.60;;;;;;5030997;28;20030;-60
2022/04/16 01:10:32;;;;;;;7.13;4.53;;;384.30;2329.60;;;;;;5030861;28;20072;-59
2022/04/16 01:13:00;;;;;;;7.50;3.97;;;384.20;2329.60;;;;;;5030898;28;20396;-59
2022/04/16 01:15:29;;;;;;;8.57;4.68;;;384.30;2329.60;;;;;;5030606;28;20464;-60
2022/04/16 01:17:56;;;;;;;6.63;4.60;;;384.20;2329.60;;;;;;5030668;28;20040;-59
2022/04/16 01:20:22;;;;;;;6.63;5.03;;;384.20;2329.60;;;;;;5030942;28;20028;-59
2022/04/16 01:22:50;;;;;;;9.07;4.80;;;384.10;2329.60;;;;;;5030787;28;20101;-59
2022/04/16 01:25:16;;;;;;;7.35;4.88;;;384.10;2329.60;;;;;;5030703;28;20025;-60
2022/04/16 01:27:48;;;;;;;11.75;4.60;;;384.00;2329.60;;;;;;5030754;28;20053;-59
2022/04/16 01:30:17;;;;;;;11.73;4.88;;;384.20;2329.60;;;;;;5030412;28;20025;-60
2022/04/16 01:32:42;;;;;;;10.07;5.00;;;384.20;2329.60;;;;;;5030731;28;20037;-59
2022/04/16 01:35:10;;;;;;;7.22;5.25;;;384.10;2329.60;;;;;;5030382;28;20460;-59
2022/04/16 01:37:37;;;;;;;5.80;4.10;;;384.10;2329.60;;;;;;5030524;28;20455;-59
2022/04/16 01:40:08;;;;;;;8.95;5.05;;;384.00;2329.60;;;;;;5030532;28;20026;-60
2022/04/16 01:42:34;;;;;;;9.07;5.07;;;384.10;2329.60;;;;;;5030189;28;20061;-60
2022/04/16 01:45:01;;;;;;;6.30;4.18;;;384.10;2329.60;;;;;;5030421;28;20033;-59
2022/04/16 01:47:28;;;;;;;9.10;4.88;;;359.30;2329.60;;;;;;5030174;28;20049;-59
2022/04/16 01:49:55;;;;;;;9.38;5.78;;;359.30;2329.60;;;;;;5030131;28;20517;-60
2022/04/16 01:52:23;;;;;;;8.15;5.53;;;359.30;2329.60;;;;;;5030269;28;20024;-59
2022/04/16 01:54:51;;;;;;;6.80;4.90;;;359.10;2329.60;;;;;;5029467;28;20104;-60
2022/04/16 01:57:18;;;;;;;11.75;6.05;;;359.00;2329.60;;;;;;5030069;28;20032;-60
2022/04/16 01:59:46;;;;;;;8.85;5.60;;;359.00;2329.60;;;;;;5030185;28;20458;-60
2022/04/16 02:02:12;;;;;;;9.25;6.45;;;359.00;2329.60;;;;;;5030513;28;20026;-60
2022/04/16 02:04:38;;;;;;;6.97;5.35;;;358.90;2329.60;;;;;;5029705;28;20109;-60
2022/04/16 02:07:04;;;;;;;11.85;6.00;;;358.90;2329.60;;;;;;5029894;28;20121;-60
2022/04/16 02:09:30;;;;;;;9.77;5.88;;;358.90;2329.60;;;;;;5030188;28;20029;-59
2022/04/16 02:11:55;;;;;;;7.65;5.60;;;358.90;2329.60;;;;;;5030029;28;20079;-61
2022/04/16 02:14:21;;;;;;;9.10;4.95;;;358.90;2329.60;;;;;;5029971;28;20034;-61
2022/04/16 02:16:48;;;;;;;10.20;5.57;;;359.00;2329.60;;;;;;5030050;28;20036;-61
2022/04/16 02:19:14;;;;;;;10.10;5.45;;;359.00;2329.60;;;;;;5030290;28;20030;-61
2022/04/16 02:21:44;;;;;;;18.70;5.22;;;358.90;2329.60;;;;;;5030024;28;20449;-60
2022/04/16 02:24:10;;;;;;;18.25;6.38;;;359.00;2329.60;;;;;;5030029;28;20392;-61
2022/04/16 02:26:37;;;;;;;10.77;4.28;;;359.00;2329.60;;;;;;5029663;28;20029;-61
2022/04/16 02:29:04;;;;;;;10.90;4.85;;;359.00;2329.60;;;;;;5029832;28;20033;-61
2022/04/16 02:31:30;;;;;;;9.00;4.55;;;359.10;2329.60;;;;;;5030028;28;20108;-61
2022/04/16 02:33:56;;;;;;;9.63;4.55;;;359.10;2329.60;;;;;;5029309;28;20120;-61
2022/04/16 02:36:25;;;;;;;9.05;4.07;;;359.10;2329.60;;;;;;5029948;28;20022;-61
2022/04/16 02:38:54;;;;;;;7.30;4.82;;;359.10;2329.60;;;;;;5029880;28;20030;-61
2022/04/16 02:41:20;;;;;;;7.10;4.72;;;359.20;2329.60;;;;;;5029825;28;20025;-60
2022/04/16 02:43:46;;;;;;;8.43;4.68;;;359.10;2329.60;;;;;;5029516;28;20108;-60
2022/04/16 02:48:56;;;;;;;13.95;4.22;;;359.20;2329.60;;;;;;5029580;28;20032;-60
2022/04/16 02:51:22;;;;;;;12.13;4.28;;;359.10;2329.60;;;;;;5029703;28;20026;-61
2022/04/16 02:53:49;;;;;;;8.13;4.35;;;359.10;2329.60;;;;;;5029351;28;20044;-60
2022/04/16 02:56:15;;;;;;;9.38;4.75;;;359.10;2329.60;;;;;;5029349;28;20032;-61
2022/04/16 02:58:41;;;;;;;7.38;4.70;;;359.10;2329.60;;;;;;5029669;28;20021;-60
2022/04/16 03:01:07;;;;;;;22.55;5.00;;;359.10;2329.60;;;;;;5029534;28;20033;-62
2022/04/16 03:03:33;;;;;;;8.73;4.40;;;359.00;2329.60;;;;;;5029513;28;20033;-60
2022/04/16 03:05:59;;;;;;;8.00;5.28;;;359.10;2329.60;;;;;;5031885;28;20108;-60
2022/04/16 03:08:25;;;;;;;9.50;4.82;;;359.00;2329.60;;;;;;5033011;28;20033;-59
2022/04/16 03:10:52;;;;;;;12.07;5.25;;;358.90;2329.60;;;;;;5033068;28;20097;-60
2022/04/16 03:13:18;;;;;;;9.82;4.72;;;358.90;2329.60;;;;;;5032822;28;20517;-60
2022/04/16 03:18:39;;;;;;;8.18;3.70;;;359.00;2329.60;;;;;;5018503;28;20048;-59
2022/04/16 03:21:06;;;;;;;8.00;2.88;;;358.90;2329.60;;;;;;5030745;28;20025;-59
2022/04/16 03:23:31;;;;;;;9.15;2.70;;;358.90;2329.60;;;;;;5030969;28;20084;-58
2022/04/16 03:26:00;;;;;;;4.80;2.50;;;358.80;2329.60;;;;;;5030452;28;20029;-60
2022/04/16 03:28:26;;;;;;;4.15;2.08;;;358.70;2329.60;;;;;;5030680;28;20061;-60
2022/04/16 03:30:53;;;;;;;4.72;2.67;;;358.70;2329.60;;;;;;5031021;28;20040;-59
2022/04/16 03:33:20;;;;;;;4.25;1.73;;;358.70;2329.60;;;;;;5030643;28;20041;-60
2022/04/16 03:35:46;;;;;;;3.58;1.60;;;358.70;2329.60;;;;;;5030206;28;20065;-60
2022/04/16 03:38:12;;;;;;;2.22;1.52;;;358.70;2329.60;;;;;;5030705;28;20569;-61
2022/04/16 03:40:38;;;;;;;3.15;2.05;;;358.80;2329.60;;;;;;5030113;28;20498;-61
2022/04/16 03:43:04;;;;;;;3.28;1.90;;;358.80;2329.60;;;;;;5030695;28;20588;-61
2022/04/16 03:45:34;;;;;;;3.63;2.05;;;358.70;2329.60;;;;;;5030312;28;20104;-60
2022/04/16 03:48:01;;;;;;;3.67;1.50;;;358.70;2329.60;;;;;;5030289;28;20460;-58
2022/04/16 03:50:29;;;;;;;7.45;1.75;;;358.80;2329.60;;;;;;5030056;28;20033;-59
2022/04/16 03:52:56;;;;;;;4.82;1.95;;;358.80;2329.60;;;;;;5029922;28;20155;-60
2022/04/16 04:00:55;;;;;;;2.78;1.38;;;358.80;2329.60;;;;;;5032462;28;20124;-60
2022/04/16 04:03:21;;;;;;;3.05;1.60;;;358.70;2329.60;;;;;;5032159;28;20100;-60
2022/04/16 04:05:53;;;;;;;2.92;1.50;;;358.70;2329.60;;;;;;5032064;28;20041;-60
2022/04/16 04:08:20;;;;;;;3.20;2.13;;;358.70;2329.60;;;;;;5032089;28;20079;-60
2022/04/16 04:10:46;;;;;;;2.85;1.50;;;358.80;2329.60;;;;;;5031872;28;20025;-60
2022/04/16 04:13:13;;;;;;;3.42;1.95;;;358.70;2329.60;;;;;;5032079;28;20387;-60
2022/04/16 04:15:39;;;;;;;2.05;1.48;;;358.70;2329.60;;;;;;5031622;28;20163;-60
2022/04/16 04:18:06;;;;;;;2.78;1.77;;;358.60;2329.60;;;;;;5030632;28;20026;-60
2022/04/16 04:20:31;;;;;;;6.03;3.63;;;358.70;2329.60;;;;;;5032006;28;20036;-60
2022/04/16 04:22:57;;;;;;;2.72;1.48;;;358.70;2329.60;;;;;;5031745;28;20025;-60
2022/04/16 04:25:23;;;;;;;3.88;1.83;;;358.80;2329.60;;;;;;5031906;28;20033;-60
2022/04/16 04:27:50;;;;;;;3.35;1.88;;;358.80;2329.60;;;;;;5031725;28;20021;-60
2022/04/16 04:30:16;;;;;;;3.17;1.70;;;358.70;2329.60;;;;;;5031679;28;20025;-60
2022/04/16 04:32:41;;;;;;;4.18;2.25;;;358.80;2329.60;;;;;;5031493;28;20030;-59
2022/04/16 04:35:08;;;;;;;2.58;1.65;;;358.80;2329.60;;;;;;5031138;28;20140;-59
2022/04/16 04:37:35;;;;;;;3.55;2.08;;;358.80;2329.60;;;;;;5031380;28;20472;-60
2022/04/16 04:40:01;;;;;;;3.03;1.85;;;358.80;2329.60;;;;;;5031554;28;20104;-58
2022/04/16 04:42:29;;;;;;;4.38;2.22;;;358.80;2329.60;;;;;;5031205;28;20029;-59
2022/04/16 04:44:56;;;;;;;2.83;1.67;;;358.90;2329.60;;;;;;5031276;28;20084;-56
2022/04/16 04:47:21;;;;;;;4.70;2.35;;;358.90;2329.60;;;;;;5031378;28;20022;-59
2022/04/16 04:49:48;;;;;;;5.63;2.13;;;358.90;2329.60;;;;;;5030971;28;20032;-59
2022/04/16 04:52:21;;;;;;;8.35;5.22;;;358.90;2329.60;;;;;;5031187;28;20388;-58
2022/04/16 04:54:47;;;;;;;4.53;2.72;;;358.80;2329.60;;;;;;5031135;28;20044;-59
2022/04/16 04:57:13;;;;;;;4.00;1.88;;;358.80;2329.60;;;;;;5031212;28;20967;-59
2022/04/16 04:59:39;;;;;;;3.95;1.88;;;358.90;2329.60;;;;;;5031156;28;20040;-58
2022/04/16 05:02:05;;;;;;;5.70;2.33;;;358.90;2329.60;;;;;;5030954;28;20462;-60
2022/04/16 05:04:32;;;;;;;4.88;2.10;;;359.00;2329.60;;;;;;5030866;28;20038;-58
2022/04/16 05:06:57;;;;;;;2.38;1.90;;;358.90;2329.60;;;;;;5031086;28;20072;-58
2022/04/16 05:09:24;;;;;;;3.75;2.20;;;359.00;2329.60;;;;;;5030851;28;20056;-59
2022/04/16 05:11:49;;;;;;;3.88;1.60;;;359.10;2329.60;;;;;;5030919;28;20032;-58
2022/04/16 05:14:15;;;;;;;3.47;2.25;;;359.20;2329.60;;;;;;5030669;28;20038;-58
2022/04/16 05:16:41;;;;;;;3.25;2.13;;;359.10;2329.60;;;;;;5030932;28;20022;-59
2022/04/16 05:19:07;;;;;;;3.65;2.08;;;359.20;2329.60;;;;;;5030593;28;20087;-58
2022/04/16 05:21:33;;;;;;;4.00;2.00;;;359.10;2329.60;;;;;;5030945;28;21078;-57
2022/04/16 05:23:59;;;;;;;5.05;2.60;;;359.20;2329.60;;;;;;5030860;28;20027;-58
2022/04/16 05:26:25;;;;;;;3.47;2.00;;;359.20;2329.60;;;;;;5030405;28;20144;-58
2022/04/16 05:28:51;;;;;;;5.68;2.20;;;359.30;2329.60;;;;;;5030828;28;20041;-58
2022/04/16 05:31:19;;;;;;;3.95;2.30;;;384.00;2329.60;;;;;;5030429;28;20025;-61
2022/04/16 05:36:29;;;;;;;3.95;2.10;;;384.60;2329.60;;;;;;5030829;28;20056;-59
2022/04/16 05:38:55;;;;;;;5.93;3.17;;;384.60;2329.60;;;;;;5030567;28;20112;-58
2022/04/16 05:41:21;;;;;;;6.55;1.92;;;384.80;2329.60;;;;;;5030519;28;20357;-59
2022/04/16 05:43:48;;;;;;;5.32;2.45;;;384.90;2329.60;;;;;;5030209;28;20490;-62
2022/04/16 05:46:13;;;;;;;5.93;2.17;;;384.80;2329.60;;;;;;5030582;28;20075;-65
2022/04/16 05:48:39;;;;;;;2.25;1.67;;;384.70;2329.60;;;;;;5030284;28;20053;-64
2022/04/16 05:51:05;;;;;;;9.52;4.57;;;384.70;2329.60;;;;;;5030125;28;20595;-63
2022/04/16 05:53:31;;;;;;;3.67;3.00;;;384.90;2329.60;;;;;;5030390;28;20088;-63
2022/04/16 05:55:58;;;;;;;4.57;3.25;;;409.60;2355.20;;;;;;5029969;28;20036;-65
2022/04/16 05:58:24;;;;;;;4.15;2.53;;;409.70;2355.20;;;;;;5030178;28;20112;-61
2022/04/16 06:00:50;;;;;;;3.60;1.70;;;409.60;2355.20;;;;;;5030249;28;20563;-62
2022/04/16 06:03:16;;;;;;;3.40;2.20;;;409.70;2355.20;;;;;;5029996;28;20052;-64
2022/04/16 06:05:41;;;;;;;3.88;1.98;;;410.00;2355.20;;;;;;5030270;28;20073;-63
2022/04/16 06:08:07;;;;;;;4.45;2.33;;;410.20;2355.20;;;;;;5029993;28;20053;-61
2022/04/16 06:10:34;;;;;;;3.63;1.88;;;410.50;2355.20;;;;;;5030141;28;20052;-58
2022/04/16 06:12:59;;;;;;;3.20;1.80;;;435.50;2355.20;;;;;;5030047;28;20021;-61
2022/04/16 06:15:25;;;;;;;2.95;1.65;;;460.80;2380.80;;;;;;5029909;28;20083;-59
2022/04/16 06:17:51;;;;;;;3.42;2.05;;;460.90;2380.80;;;;;;5029952;28;20105;-59
2022/04/16 06:20:16;;;;;;;4.45;2.53;;;436.00;2355.20;;;;;;5029899;28;20033;-59
2022/04/16 06:22:42;;;;;;;4.72;2.72;;;435.90;2355.20;;;;;;5030330;28;20028;-58
2022/04/16 06:25:11;;;;;;;3.60;2.20;;;460.80;2380.80;;;;;;5029961;28;20035;-59
2022/04/16 06:27:40;;;;;;;3.25;1.98;;;461.00;2380.80;;;;;;5029727;28;20036;-60
2022/04/16 06:30:08;;;;;;;4.30;2.47;;;461.10;2380.80;;;;;;5029796;28;20033;-59
2022/04/16 06:32:34;;;;;;;4.85;2.40;;;460.80;2380.80;;;;;;5029498;28;20025;-60
2022/04/16 06:35:01;;;;;;;5.90;2.72;;;435.80;2355.20;;;;;;5029812;28;20077;-60
2022/04/16 06:37:27;;;;;;;9.85;4.90;;;435.50;2355.20;;;;;;5029714;28;20025;-61
2022/04/16 06:39:53;;;;;;;5.35;3.83;;;435.30;2355.20;;;;;;5030848;28;20435;-60
2022/04/16 06:42:19;;;;;;;4.18;3.00;;;435.60;2355.20;;;;;;5033631;28;20049;-59
2022/04/16 06:44:44;;;;;;;4.88;2.65;;;435.60;2355.20;;;;;;5033821;28;20021;-59
2022/04/16 06:47:10;;;;;;;4.75;3.88;;;435.50;2355.20;;;;;;5033532;28;20025;-61
2022/04/16 06:49:36;;;;;;;3.90;2.78;;;435.30;2355.20;;;;;;5033144;28;20068;-62
2022/04/16 06:52:01;;;;;;;4.43;2.35;;;435.30;2355.20;;;;;;5033559;28;20468;-61
2022/04/16 06:54:27;;;;;;;3.58;1.90;;;410.50;2355.20;;;;;;5033199;28;20045;-60
2022/04/16 06:56:53;;;;;;;3.72;2.13;;;410.40;2355.20;;;;;;5033591;28;20048;-61
2022/04/16 06:59:18;;;;;;;3.15;2.03;;;410.20;2355.20;;;;;;5033152;28;20078;-59
2022/04/16 07:01:44;;;;;;;4.30;2.35;;;410.30;2355.20;;;;;;5033493;28;20032;-60
2022/04/16 07:04:11;;;;;;;2.95;2.00;;;410.40;2355.20;;;;;;5033196;28;20040;-62
2022/04/16 07:06:39;;;;;;;2.83;1.73;;;435.20;2355.20;;;;;;5033393;28;20044;-62
2022/04/16 07:09:05;;;;;;;2.67;1.73;;;435.20;2355.20;;;;;;5033016;28;20036;-59
2022/04/16 07:11:30;;;;;;;2.15;1.65;;;410.10;2355.20;;;;;;5033278;28;20022;-61
2022/04/16 07:13:56;;;;;;;4.88;2.85;;;410.50;2355.20;;;;;;5032919;28;20052;-59
2022/04/16 07:16:22;;;;;;;3.42;2.00;;;435.40;2355.20;;;;;;5033094;28;20033;-63
2022/04/16 07:18:47;;;;;;;3.72;1.98;;;435.50;2355.20;;;;;;5032908;28;20029;-60
2022/04/16 07:21:13;;;;;;;5.90;3.15;;;435.20;2355.20;;;;;;5033169;28;20456;-59
2022/04/16 07:23:39;;;;;;;4.47;2.22;;;410.40;2355.20;;;;;;5032946;28;20064;-59
2022/04/16 07:26:05;;;;;;;6.57;4.03;;;410.20;2355.20;;;;;;5032832;28;20036;-61
2022/04/16 07:28:30;;;;;;;4.65;2.83;;;410.20;2355.20;;;;;;5032835;28;20448;-63
2022/04/16 07:30:56;;;;;;;4.93;2.28;;;410.20;2355.20;;;;;;5032685;28;20026;-60
2022/04/16 07:33:22;;;;;;;4.38;2.35;;;409.90;2355.20;;;;;;5032697;28;20480;-62
2022/04/16 07:35:47;;;;;;;4.18;2.42;;;409.90;2355.20;;;;;;5032489;28;20045;-59
2022/04/16 07:38:13;;;;;;;8.50;3.83;;;409.60;2355.20;;;;;;5032937;28;20030;-60
2022/04/16 07:40:39;;;;;;;4.13;2.22;;;384.60;2329.60;;;;;;5032718;28;20033;-58
2022/04/16 07:43:06;;;;;;;4.07;2.70;;;384.50;2329.60;;;;;;5032393;28;20030;-64
2022/04/16 07:45:32;;;;;;;3.40;2.30;;;384.30;2329.60;;;;;;5032732;28;20025;-63
2022/04/16 07:47:58;;;;;;;3.92;2.33;;;384.30;2329.60;;;;;;5032217;28;20045;-63
2022/04/16 07:50:24;;;;;;;4.35;2.22;;;384.40;2329.60;;;;;;5032847;28;20033;-60
2022/04/16 07:52:49;;;;;;;5.18;2.40;;;384.40;2329.60;;;;;;5031495;28;20025;-62
2022/04/16 07:55:16;;;;;;;3.47;2.72;;;384.60;2329.60;;;;;;5032436;28;20387;-63
2022/04/16 07:57:42;;;;;;;4.68;2.50;;;384.60;2329.60;;;;;;5032476;28;20079;-62
2022/04/16 08:00:09;;;;;;;4.40;2.80;;;384.60;2329.60;;;;;;5032319;28;20113;-60
2022/04/16 08:02:35;;;;;;;5.22;3.30;;;384.40;2329.60;;;;;;5031924;28;20026;-62
2022/04/16 08:05:01;;;;;;;4.50;2.67;;;384.50;2329.60;;;;;;5032200;28;20080;-58
2022/04/16 08:07:27;;;;;;;6.82;3.05;;;384.60;2329.60;;;;;;5031235;28;20034;-61
2022/04/16 08:09:52;;;;;;;4.25;2.58;;;384.70;2329.60;;;;;;5031593;28;20022;-58
2022/04/16 08:12:18;;;;;;;3.35;1.90;;;384.60;2329.60;;;;;;5031012;28;20460;-61
2022/04/16 08:14:44;;;;;;;4.00;1.98;;;384.40;2329.60;;;;;;5031598;28;20029;-59
2022/04/16 08:17:10;;;;;;;4.88;2.17;;;384.40;2329.60;;;;;;5030997;28;20017;-59
2022/04/16 08:19:35;;;;;;;4.93;2.28;;;384.30;2329.60;;;;;;5031300;28;20112;-59
2022/04/16 08:22:06;;;;;;;3.00;1.92;;;384.30;2329.60;;;;;;5031243;28;20021;-62
2022/04/16 08:24:40;;;;;;;2.97;2.03;;;384.50;2329.60;;;;;;5031164;28;20465;-57
2022/04/16 08:27:07;;;;;;;3.22;1.85;;;384.50;2329.60;;;;;;5011706;28;20543;-61
2022/04/16 08:29:33;;;;;;;3.45;1.90;;;384.50;2329.60;;;;;;5011942;28;20389;-62
2022/04/16 08:31:59;;;;;;;3.17;1.70;;;384.80;2329.60;;;;;;5011709;28;20032;-58
2022/04/16 08:34:24;;;;;;;5.30;3.15;;;384.90;2329.60;;;;;;5011326;28;20046;-59
2022/04/16 08:36:51;;;;;;;3.85;1.92;;;409.70;2355.20;;;;;;5011600;28;20022;-58
2022/04/16 08:39:16;;;;;;;3.05;2.38;;;409.90;2355.20;;;;;;5010620;28;20038;-59
2022/04/16 08:41:42;;;;;;;3.42;2.08;;;409.60;2355.20;;;;;;5010859;28;20481;-59
2022/04/16 08:44:08;;;;;;;3.97;2.13;;;384.90;2329.60;;;;;;5011690;28;20112;-62
2022/04/16 08:46:35;;;;;;;3.25;1.83;;;384.80;2329.60;;;;;;5011729;28;20103;-60
2022/04/16 08:49:01;;;;;;;2.72;1.65;;;384.50;2329.60;;;;;;5011617;28;20026;-61
2022/04/16 08:51:27;;;;;;;6.60;3.15;;;384.30;2329.60;;;;;;5011293;28;20076;-61
2022/04/16 08:53:53;;;;;;;6.80;2.67;;;384.40;2329.60;;;;;;5011549;28;20401;-59
2022/04/16 08:56:19;;;;;;;4.03;2.33;;;384.30;2329.60;;;;;;5011506;28;20033;-60
2022/04/16 08:58:45;;;;;;;6.18;4.05;;;384.20;2329.60;;;;;;5011438;28;20116;-62
2022/04/16 09:01:11;;;;;;;4.22;2.22;;;384.20;2329.60;;;;;;5011328;28;20034;-62
2022/04/16 09:03:39;;;;;;;2.85;2.22;;;384.20;2329.60;;;;;;5010393;28;20038;-61
2022/04/16 09:06:05;;;;;;;3.60;2.20;;;384.30;2329.60;;;;;;5011115;28;20121;-62
2022/04/16 09:08:33;;;;;;;5.20;2.50;;;384.80;2329.60;;;;;;5011225;28;20025;-61
2022/04/16 09:11:12;;;;;;;3.70;2.15;;;409.90;2355.20;;;;;;5010984;28;20029;-61
2022/04/16 09:13:50;;;;;;;3.05;2.13;;;410.20;2355.20;;;;;;5010861;28;20551;-59
2022/04/16 09:16:16;;;;;;;3.47;2.22;;;410.30;2355.20;;;;;;5010981;28;20058;-59
2022/04/16 09:18:52;;;;;;;4.15;1.63;;;410.20;2355.20;;;;;;5011066;28;20464;-59
2022/04/16 09:21:20;;;;;;;4.07;2.70;;;410.30;2355.20;;;;;;5010998;28;20022;-62
2022/04/16 09:23:50;;;;;;;2.47;1.48;;;410.20;2355.20;;;;;;5010957;28;20022;-59
2022/04/16 09:26:25;;;;;;;4.57;2.10;;;410.30;2278.40;;;;;;5010775;28;20057;-57
2022/04/16 09:28:51;;;;;;;3.70;2.55;;;410.50;2227.20;;;;;;5010752;28;20029;-64
2022/04/16 09:31:18;;;;;;;5.03;3.10;;;410.40;2227.20;;;;;;5010917;28;20026;-61
2022/04/16 09:33:45;;;;;;;3.03;1.88;;;410.50;2227.20;;;;;;5009744;28;20436;-59
2022/04/16 09:36:11;;;;;;;3.08;2.00;;;410.10;2278.40;;;;;;5010906;28;20034;-59
2022/04/16 09:38:40;;;;;;;3.85;2.13;;;410.00;2304.00;;;;;;5010658;28;20392;-59
2022/04/16 09:41:08;;;;;;;3.35;1.95;;;410.00;2355.20;;;;;;5010622;28;20109;-60
2022/04/16 09:43:37;;;;;;;3.22;1.80;;;410.00;2355.20;;;;;;5010868;28;20372;-59
2022/04/16 09:46:13;;;;;;;4.88;2.58;;;409.70;2355.20;;;;;;5010941;28;20034;-59
2022/04/16 09:48:39;;;;;;;3.42;1.98;;;384.70;2329.60;;;;;;5010352;28;20452;-61
2022/04/16 09:51:05;;;;;;;4.20;2.33;;;384.80;2329.60;;;;;;5010413;28;20129;-61
2022/04/16 09:53:31;;;;;;;3.95;1.88;;;384.80;2329.60;;;;;;5010316;28;20037;-59
2022/04/16 09:55:59;;;;;;;2.90;1.60;;;384.70;2329.60;;;;;;5010141;28;20183;-60
2022/04/16 09:58:39;;;;;;;3.17;1.70;;;384.40;2329.60;;;;;;5010306;28;20044;-59
2022/04/16 10:01:05;;;;;;;4.75;2.05;;;384.30;2329.60;;;;;;5010255;28;20026;-59
2022/04/16 10:03:32;;;;;;;4.28;2.15;;;384.60;2329.60;;;;;;5010480;28;20040;-60
2022/04/16 10:05:59;;;;;;;5.82;1.73;;;384.50;2329.60;;;;;;5010371;28;20034;-58
2022/04/16 10:08:28;;;;;;;3.55;1.98;;;384.40;2329.60;;;;;;5010302;28;20115;-59
2022/04/16 10:10:57;;;;;;;4.30;1.98;;;384.70;2329.60;;;;;;5010263;28;20029;-60
2022/04/16 10:13:23;;;;;;;3.22;1.92;;;384.60;2329.60;;;;;;5010526;28;20358;-57
2022/04/16 10:15:59;;;;;;;3.83;1.55;;;384.80;2329.60;;;;;;5013132;28;20033;-63
2022/04/16 10:18:25;;;;;;;3.72;2.20;;;384.90;2329.60;;;;;;5014245;28;20021;-59
2022/04/16 10:20:56;;;;;;;3.95;2.08;;;409.60;2355.20;;;;;;5014336;28;20022;-61
2022/04/16 10:23:28;;;;;;;3.17;1.83;;;384.80;2329.60;;;;;;5014298;28;20033;-59
2022/04/16 10:26:05;;;;;;;3.30;1.67;;;384.70;2329.60;;;;;;5013999;28;20439;-59
2022/04/16 10:28:41;;;;;;;4.55;2.33;;;409.60;2355.20;;;;;;5014046;28;20041;-59
2022/04/16 10:31:28;;;;;;;2.92;1.83;;;384.90;2329.60;;;;;;5013914;28;20025;-58
2022/04/16 10:34:11;;;;;;;3.03;2.00;;;409.70;2355.20;;;;;;5013595;28;20042;-60
2022/04/16 10:36:52;;;;;;;3.03;1.65;;;410.00;2355.20;;;;;;5013940;28;20034;-62
2022/04/16 10:39:25;;;;;;;3.78;2.42;;;410.30;2355.20;;;;;;5014148;28;20435;-59
2022/04/16 10:41:55;;;;;;;3.17;1.60;;;410.20;2278.40;;;;;;5013795;28;20026;-62
2022/04/16 10:44:21;;;;;;;2.60;1.90;;;410.40;2278.40;;;;;;5014076;28;20036;-63
2022/04/16 10:46:48;;;;;;;6.03;2.75;;;410.50;2252.80;;;;;;5013574;28;20022;-59
2022/04/16 10:49:16;;;;;;;4.43;2.45;;;435.20;2304.00;;;;;;5013884;28;20579;-59
2022/04/16 10:51:42;;;;;;;4.60;3.10;;;435.40;2227.20;;;;;;5014104;28;20026;-59
2022/04/16 10:54:13;;;;;;;3.58;2.15;;;410.50;2176.00;;;;;;5013607;28;20454;-59
2022/04/16 10:56:40;;;;;;;4.10;2.15;;;410.30;2201.60;;;;;;5013561;28;20093;-59
2022/04/16 10:59:07;;;;;;;9.50;5.57;;;410.50;2227.20;;;;;;5013419;28;20033;-58
2022/04/16 11:01:34;;;;;;;4.88;2.55;;;435.20;2176.00;;;;;;5013666;28;20364;-62
2022/04/16 11:04:13;;;;;;;3.60;2.30;;;410.50;2176.00;;;;;;5013524;28;20153;-59
2022/04/16 11:06:45;;;;;;;3.75;2.13;;;410.00;2201.60;;;;;;5013461;28;20084;-60
2022/04/16 11:09:13;;;;;;;2.50;1.45;;;410.50;2150.40;;;;;;5013422;28;20030;-59
2022/04/16 11:11:41;;;;;;;4.55;2.00;;;435.30;2124.80;;;;;;5013208;28;20030;-61
2022/04/16 11:14:08;;;;;;;4.18;2.20;;;435.60;2124.80;;;;;;5013189;28;20044;-59
2022/04/16 11:16:43;;;;;;;2.90;1.85;;;435.50;2073.60;;;;;;5013215;28;20045;-60
2022/04/16 11:19:13;;;;;;;3.28;2.03;;;435.80;2048.00;;;;;;5013156;28;20026;-60
2022/04/16 11:21:39;;;;;;;3.60;2.17;;;435.80;2048.00;;;;;;5013087;28;20026;-59
2022/04/16 11:24:06;;;;;;;3.33;1.90;;;435.90;2022.40;;;;;;5012967;28;20104;-60
2022/04/16 11:34:54;;;;;;;4.32;2.05;;;435.80;1920.00;;;;;;5012611;28;20080;-59
2022/04/16 11:37:20;;;;;;;4.60;2.53;;;435.90;1971.20;;;;;;5013278;28;20045;-63
2022/04/16 11:39:48;;;;;;;4.57;2.33;;;435.90;1945.60;;;;;;5013095;28;20443;-60
2022/04/16 11:42:14;;;;;;;4.15;2.30;;;435.90;1996.80;;;;;;5012876;28;20756;-60
2022/04/16 11:44:46;;;;;;;3.22;2.25;;;435.80;1996.80;;;;;;5012820;28;20038;-63
2022/04/16 11:47:13;;;;;;;2.97;1.85;;;436.10;1920.00;;;;;;5012923;28;20034;-59
2022/04/16 11:50:06;;;;;;;4.18;2.50;;;460.80;1945.60;;;;;;5012578;28;20537;-59
2022/04/16 11:52:36;;;;;;;3.75;2.58;;;460.90;1920.00;;;;;;5010979;28;20034;-61
2022/04/16 11:55:23;;;;;;;6.70;2.92;;;461.10;1920.00;;;;;;5012648;28;20069;-59
2022/04/16 11:57:53;;;;;;;2.97;1.88;;;461.30;1894.40;;;;;;5012287;28;20022;-59
2022/04/16 12:00:21;;;;;;;3.15;2.03;;;461.70;1817.60;;;;;;5012223;28;20033;-60
2022/04/16 12:02:47;;;;;;;3.25;2.03;;;486.70;1740.80;;;;;;5012159;28;20542;-60
2022/04/16 12:05:23;;;;;;;3.80;2.00;;;486.80;1740.80;;;;;;5012551;28;20030;-60
2022/04/16 12:07:49;;;;;;;3.15;2.15;;;486.40;1792.00;;;;;;5012182;28;20112;-61
2022/04/16 12:10:17;;;;;;;3.45;1.98;;;461.60;1766.40;;;;;;5011391;28;20096;-60
2022/04/16 12:12:49;;;;;;;3.08;1.83;;;461.40;1766.40;;;;;;5011759;28;20106;-59
2022/04/16 12:15:28;;;;;;;2.92;2.03;;;461.40;1766.40;;;;;;5010042;28;20030;-59
2022/04/16 12:17:56;;;;;;;3.63;2.10;;;461.40;1740.80;;;;;;5010457;28;20018;-61
2022/04/16 12:20:24;;;;;;;3.80;2.00;;;461.30;1766.40;;;;;;5010560;28;20092;-59
2022/04/16 12:22:57;;;;;;;3.03;1.80;;;461.30;1792.00;;;;;;5010657;28;20026;-61
2022/04/16 12:25:24;;;;;;;2.40;1.75;;;461.50;1792.00;;;;;;5010391;28;20109;-60
2022/04/16 12:27:52;;;;;;;2.00;1.45;;;486.40;1715.20;;;;;;5010014;28;20504;-59
2022/04/16 12:30:20;;;;;;;2.30;1.50;;;486.70;1664.00;;;;;;5010349;28;20434;-59
2022/04/16 12:32:59;;;;;;;4.10;1.83;;;486.80;1664.00;;;;;;5009990;28;20033;-60
2022/04/16 12:35:26;;;;;;;3.90;2.40;;;486.70;1664.00;;;;;;5009924;28;20064;-60
2022/04/16 12:37:56;;;;;;;2.10;1.60;;;486.40;1689.60;;;;;;5009514;28;20436;-65
2022/04/16 12:40:24;;;;;;;3.50;1.90;;;461.40;1715.20;;;;;;5009734;28;20100;-63